PGT70UG LTFJ-LTFD
Flight info
| Callsign | PGT70UG |
|---|---|
| Flight time | 0h 36m |
| Altitude | 26000 |
| Route | IVGUS Y227 RAUMA G80 KONEN |
| Aircraft | A320/M-SDE3FGHIRWY/LB1 |
Departure
| Time | 2026-05-08 17:45 |
|---|---|
| Airport | Istanbul Sabiha Gökçen International Airport (LTFJ) |
Arrival
| Time | 2026-05-08 18:22 |
|---|---|
| Airport | Balıkesir Koca Seyit Airport (LTFD) |
| Time | Latitude | Longitude | Altitude | Speed | Heading |
|---|---|---|---|---|---|
| 2026-05-08 17:16 | 40.89833 | 29.32344 | 308 ft | 0 kts | 64° |
| 2026-05-08 17:37 | 40.89824 | 29.32320 | 307 ft | 3 kts | 63° |
| 2026-05-08 17:37 | 40.89817 | 29.32299 | 307 ft | 3 kts | 46° |
| 2026-05-08 17:37 | 40.89810 | 29.32295 | 306 ft | 3 kts | 33° |
| 2026-05-08 17:38 | 40.89795 | 29.32274 | 306 ft | 3 kts | 66° |
| 2026-05-08 17:38 | 40.89789 | 29.32244 | 305 ft | 3 kts | 70° |
| 2026-05-08 17:38 | 40.89792 | 29.32230 | 305 ft | 4 kts | 344° |
| 2026-05-08 17:38 | 40.89799 | 29.32223 | 307 ft | 0 kts | 321° |
| 2026-05-08 17:39 | 40.89807 | 29.32214 | 307 ft | 0 kts | 320° |
| 2026-05-08 17:39 | 40.89807 | 29.32209 | 307 ft | 0 kts | 289° |
| 2026-05-08 17:40 | 40.89782 | 29.32214 | 306 ft | 4 kts | 128° |
| 2026-05-08 17:40 | 40.89771 | 29.32231 | 305 ft | 0 kts | 152° |
| 2026-05-08 17:40 | 40.89763 | 29.32237 | 305 ft | 3 kts | 152° |
| 2026-05-08 17:40 | 40.89723 | 29.32264 | 304 ft | 8 kts | 155° |
| 2026-05-08 17:41 | 40.89664 | 29.32301 | 302 ft | 10 kts | 154° |
| 2026-05-08 17:41 | 40.89608 | 29.32337 | 302 ft | 8 kts | 154° |
| 2026-05-08 17:41 | 40.89553 | 29.32354 | 305 ft | 9 kts | 171° |
| 2026-05-08 17:41 | 40.89503 | 29.32388 | 303 ft | 9 kts | 126° |
| 2026-05-08 17:42 | 40.89529 | 29.32525 | 302 ft | 22 kts | 64° |
| 2026-05-08 17:42 | 40.89600 | 29.32719 | 301 ft | 25 kts | 64° |
| 2026-05-08 17:42 | 40.89684 | 29.32943 | 297 ft | 29 kts | 64° |
| 2026-05-08 17:42 | 40.89773 | 29.33190 | 288 ft | 31 kts | 64° |
| 2026-05-08 17:43 | 40.89866 | 29.33438 | 296 ft | 28 kts | 63° |
| 2026-05-08 17:43 | 40.89948 | 29.33661 | 307 ft | 25 kts | 64° |
| 2026-05-08 17:43 | 40.89989 | 29.33772 | 313 ft | 6 kts | 64° |
| 2026-05-08 17:43 | 40.89979 | 29.33803 | 314 ft | 7 kts | 133° |
| 2026-05-08 17:44 | 40.89943 | 29.33831 | 314 ft | 4 kts | 153° |
| 2026-05-08 17:44 | 40.89872 | 29.33876 | 313 ft | 18 kts | 158° |
| 2026-05-08 17:44 | 40.89758 | 29.33712 | 301 ft | 49 kts | 244° |
| 2026-05-08 17:44 | 40.89507 | 29.33029 | 297 ft | 114 kts | 243° |
| 2026-05-08 17:45 | 40.89076 | 29.31859 | 304 ft | 163 kts | 244° |
| 2026-05-08 17:45 | 40.88544 | 29.30421 | 717 ft | 177 kts | 244° |
| 2026-05-08 17:45 | 40.87883 | 29.29051 | 1405 ft | 180 kts | 220° |
| 2026-05-08 17:45 | 40.86720 | 29.28225 | 1773 ft | 202 kts | 210° |
| 2026-05-08 17:46 | 40.85879 | 29.27593 | 1968 ft | 219 kts | 213° |
| 2026-05-08 17:46 | 40.84510 | 29.26482 | 2423 ft | 242 kts | 213° |
| 2026-05-08 17:46 | 40.82592 | 29.24876 | 3540 ft | 249 kts | 213° |
| 2026-05-08 17:46 | 40.81143 | 29.23636 | 4584 ft | 247 kts | 213° |
| 2026-05-08 17:47 | 40.79712 | 29.22396 | 5603 ft | 246 kts | 213° |
| 2026-05-08 17:47 | 40.78743 | 29.21556 | 6261 ft | 247 kts | 212° |
| 2026-05-08 17:47 | 40.77314 | 29.20289 | 7182 ft | 248 kts | 216° |
| 2026-05-08 17:47 | 40.76077 | 29.18672 | 8002 ft | 256 kts | 231° |
| 2026-05-08 17:48 | 40.75178 | 29.16566 | 8641 ft | 270 kts | 242° |
| 2026-05-08 17:48 | 40.74374 | 29.14306 | 9459 ft | 274 kts | 242° |
| 2026-05-08 17:48 | 40.73548 | 29.12014 | 10247 ft | 281 kts | 242° |
| 2026-05-08 17:48 | 40.72667 | 29.09591 | 10534 ft | 305 kts | 242° |
| 2026-05-08 17:49 | 40.72037 | 29.06820 | 10874 ft | 328 kts | 262° |
| 2026-05-08 17:49 | 40.71863 | 29.03784 | 11541 ft | 335 kts | 262° |
| 2026-05-08 17:49 | 40.71616 | 29.00707 | 12291 ft | 340 kts | 261° |
| 2026-05-08 17:49 | 40.71335 | 28.97596 | 13039 ft | 344 kts | 261° |
| 2026-05-08 17:50 | 40.71044 | 28.94443 | 13784 ft | 348 kts | 260° |
| 2026-05-08 17:50 | 40.70738 | 28.91272 | 14517 ft | 350 kts | 260° |
| 2026-05-08 17:50 | 40.70424 | 28.88089 | 15235 ft | 351 kts | 260° |
| 2026-05-08 17:50 | 40.70105 | 28.84887 | 15958 ft | 353 kts | 260° |
| 2026-05-08 17:51 | 40.69786 | 28.81673 | 16681 ft | 355 kts | 261° |
| 2026-05-08 17:51 | 40.69467 | 28.78443 | 17391 ft | 356 kts | 261° |
| 2026-05-08 17:51 | 40.69147 | 28.75195 | 18098 ft | 358 kts | 261° |
| 2026-05-08 17:51 | 40.68825 | 28.71932 | 18731 ft | 360 kts | 261° |
| 2026-05-08 17:52 | 40.68499 | 28.68647 | 19286 ft | 363 kts | 262° |
| 2026-05-08 17:52 | 40.68171 | 28.65337 | 19844 ft | 366 kts | 262° |
| 2026-05-08 17:52 | 40.67494 | 28.58647 | 20919 ft | 371 kts | 262° |
| 2026-05-08 17:53 | 40.67153 | 28.55259 | 21431 ft | 375 kts | 262° |
| 2026-05-08 17:53 | 40.66810 | 28.51840 | 21942 ft | 378 kts | 262° |
| 2026-05-08 17:53 | 40.66462 | 28.48400 | 22450 ft | 381 kts | 262° |
| 2026-05-08 17:53 | 40.66105 | 28.44927 | 22948 ft | 384 kts | 262° |
| 2026-05-08 17:54 | 40.65745 | 28.41429 | 23336 ft | 387 kts | 262° |
| 2026-05-08 17:54 | 40.65391 | 28.37961 | 23606 ft | 389 kts | 262° |
| 2026-05-08 17:54 | 40.65034 | 28.34422 | 24047 ft | 391 kts | 262° |
| 2026-05-08 17:54 | 40.64665 | 28.30864 | 24499 ft | 393 kts | 262° |
| 2026-05-08 17:55 | 40.64295 | 28.27284 | 24923 ft | 396 kts | 261° |
| 2026-05-08 17:55 | 40.63915 | 28.23686 | 25333 ft | 398 kts | 262° |
| 2026-05-08 17:55 | 40.63543 | 28.20061 | 25737 ft | 401 kts | 262° |
| 2026-05-08 17:55 | 40.63165 | 28.16456 | 26020 ft | 395 kts | 262° |
| 2026-05-08 17:56 | 40.62795 | 28.12900 | 26094 ft | 389 kts | 262° |
| 2026-05-08 17:56 | 40.62429 | 28.09386 | 26107 ft | 387 kts | 262° |
| 2026-05-08 17:56 | 40.62061 | 28.05874 | 26113 ft | 387 kts | 261° |
| 2026-05-08 17:56 | 40.61691 | 28.02369 | 26099 ft | 386 kts | 261° |
| 2026-05-08 17:57 | 40.61320 | 27.98873 | 26100 ft | 386 kts | 261° |
| 2026-05-08 17:57 | 40.60948 | 27.95379 | 26098 ft | 385 kts | 261° |
| 2026-05-08 17:57 | 40.60576 | 27.91893 | 26098 ft | 385 kts | 261° |
| 2026-05-08 17:57 | 40.60202 | 27.88412 | 26098 ft | 384 kts | 261° |
| 2026-05-08 17:58 | 40.59836 | 27.84926 | 26104 ft | 384 kts | 261° |
| 2026-05-08 17:58 | 40.59465 | 27.81446 | 26097 ft | 384 kts | 261° |
| 2026-05-08 17:58 | 40.59088 | 27.77967 | 26098 ft | 384 kts | 261° |
| 2026-05-08 17:58 | 40.58705 | 27.74490 | 26092 ft | 384 kts | 261° |
| 2026-05-08 17:59 | 40.58332 | 27.71013 | 26091 ft | 384 kts | 261° |
| 2026-05-08 17:59 | 40.57959 | 27.67535 | 26090 ft | 384 kts | 261° |
| 2026-05-08 17:59 | 40.57562 | 27.64065 | 26082 ft | 383 kts | 257° |
| 2026-05-08 17:59 | 40.56673 | 27.60776 | 26088 ft | 383 kts | 242° |
| 2026-05-08 18:00 | 40.55069 | 27.57978 | 26099 ft | 386 kts | 225° |
| 2026-05-08 18:00 | 40.50287 | 27.54689 | 26111 ft | 395 kts | 203° |
| 2026-05-08 18:00 | 40.47690 | 27.53508 | 26111 ft | 395 kts | 203° |
| 2026-05-08 18:01 | 40.45098 | 27.52322 | 26112 ft | 394 kts | 203° |
| 2026-05-08 18:01 | 40.42512 | 27.51136 | 26110 ft | 394 kts | 203° |
| 2026-05-08 18:01 | 40.39923 | 27.49945 | 26095 ft | 394 kts | 205° |
| 2026-05-08 18:01 | 40.37342 | 27.48758 | 26098 ft | 393 kts | 205° |
| 2026-05-08 18:02 | 40.34745 | 27.47559 | 26099 ft | 396 kts | 205° |
| 2026-05-08 18:02 | 40.33046 | 27.46777 | 26105 ft | 386 kts | 205° |
| 2026-05-08 18:02 | 40.29748 | 27.45271 | 26025 ft | 365 kts | 205° |
| 2026-05-08 18:02 | 40.27393 | 27.44188 | 25868 ft | 353 kts | 205° |
| 2026-05-08 18:03 | 40.25117 | 27.43140 | 25690 ft | 342 kts | 206° |
| 2026-05-08 18:03 | 40.22888 | 27.42108 | 25336 ft | 338 kts | 206° |
| 2026-05-08 18:03 | 40.20673 | 27.41096 | 24901 ft | 337 kts | 206° |
| 2026-05-08 18:03 | 40.18465 | 27.40085 | 24469 ft | 336 kts | 206° |
| 2026-05-08 18:04 | 40.16260 | 27.39072 | 23940 ft | 338 kts | 205° |
| 2026-05-08 18:04 | 40.14002 | 27.38041 | 23154 ft | 348 kts | 205° |
| 2026-05-08 18:04 | 40.11708 | 27.36992 | 22498 ft | 351 kts | 204° |
| 2026-05-08 18:04 | 40.09389 | 27.35934 | 21850 ft | 355 kts | 204° |
| 2026-05-08 18:05 | 40.07047 | 27.34867 | 21209 ft | 358 kts | 203° |
| 2026-05-08 18:05 | 40.04706 | 27.33805 | 20863 ft | 352 kts | 203° |
| 2026-05-08 18:05 | 40.02418 | 27.32766 | 20613 ft | 344 kts | 204° |
| 2026-05-08 18:05 | 40.00177 | 27.31744 | 20364 ft | 337 kts | 204° |
| 2026-05-08 18:06 | 39.97955 | 27.30868 | 20157 ft | 332 kts | 195° |
| 2026-05-08 18:06 | 39.95697 | 27.30405 | 20032 ft | 323 kts | 192° |
| 2026-05-08 18:06 | 39.93493 | 27.30005 | 19568 ft | 322 kts | 193° |
| 2026-05-08 18:06 | 39.91288 | 27.29591 | 19047 ft | 327 kts | 192° |
| 2026-05-08 18:07 | 39.89036 | 27.29175 | 18594 ft | 328 kts | 192° |
| 2026-05-08 18:07 | 39.86751 | 27.28757 | 17960 ft | 334 kts | 192° |
| 2026-05-08 18:07 | 39.84455 | 27.28311 | 17472 ft | 332 kts | 196° |
| 2026-05-08 18:07 | 39.82308 | 27.27335 | 17047 ft | 322 kts | 211° |
| 2026-05-08 18:08 | 39.80487 | 27.25697 | 16225 ft | 317 kts | 227° |
| 2026-05-08 18:08 | 39.79112 | 27.23489 | 15499 ft | 315 kts | 239° |
| 2026-05-08 18:08 | 39.77968 | 27.21069 | 15118 ft | 313 kts | 240° |
| 2026-05-08 18:08 | 39.76828 | 27.18684 | 14857 ft | 307 kts | 240° |
| 2026-05-08 18:09 | 39.75679 | 27.16297 | 14088 ft | 318 kts | 240° |
| 2026-05-08 18:09 | 39.74493 | 27.13820 | 13408 ft | 323 kts | 240° |
| 2026-05-08 18:09 | 39.73319 | 27.11365 | 13034 ft | 318 kts | 240° |
| 2026-05-08 18:09 | 39.72141 | 27.08939 | 12600 ft | 318 kts | 238° |
| 2026-05-08 18:10 | 39.70843 | 27.06629 | 12168 ft | 316 kts | 236° |
| 2026-05-08 18:10 | 39.69542 | 27.04347 | 11711 ft | 313 kts | 236° |
| 2026-05-08 18:10 | 39.68248 | 27.02063 | 11206 ft | 314 kts | 236° |
| 2026-05-08 18:10 | 39.66956 | 26.99789 | 10798 ft | 312 kts | 235° |
| 2026-05-08 18:11 | 39.65676 | 26.97535 | 10384 ft | 309 kts | 236° |
| 2026-05-08 18:11 | 39.64419 | 26.95311 | 10169 ft | 300 kts | 236° |
| 2026-05-08 18:11 | 39.63208 | 26.93173 | 10058 ft | 287 kts | 236° |
| 2026-05-08 18:11 | 39.62045 | 26.91130 | 9905 ft | 277 kts | 236° |
| 2026-05-08 18:12 | 39.60909 | 26.89133 | 9551 ft | 273 kts | 236° |
| 2026-05-08 18:12 | 39.59784 | 26.87158 | 9174 ft | 271 kts | 235° |
| 2026-05-08 18:12 | 39.58668 | 26.85199 | 8827 ft | 268 kts | 235° |
| 2026-05-08 18:12 | 39.57569 | 26.83261 | 8448 ft | 266 kts | 235° |
| 2026-05-08 18:13 | 39.56477 | 26.81340 | 8065 ft | 264 kts | 234° |
| 2026-05-08 18:13 | 39.55392 | 26.79433 | 7669 ft | 262 kts | 234° |
| 2026-05-08 18:13 | 39.54314 | 26.77547 | 7399 ft | 256 kts | 233° |
| 2026-05-08 18:13 | 39.53269 | 26.75717 | 6968 ft | 256 kts | 233° |
| 2026-05-08 18:14 | 39.52203 | 26.73850 | 6273 ft | 266 kts | 233° |
| 2026-05-08 18:14 | 39.51117 | 26.71943 | 6012 ft | 257 kts | 232° |
| 2026-05-08 18:14 | 39.50082 | 26.70130 | 5880 ft | 244 kts | 232° |
| 2026-05-08 18:14 | 39.49027 | 26.68502 | 5748 ft | 229 kts | 217° |
| 2026-05-08 18:15 | 39.47608 | 26.67773 | 5621 ft | 219 kts | 183° |
| 2026-05-08 18:15 | 39.46173 | 26.68321 | 5500 ft | 219 kts | 151° |
| 2026-05-08 18:15 | 39.44945 | 26.69478 | 5235 ft | 217 kts | 148° |
| 2026-05-08 18:15 | 39.43736 | 26.70633 | 4842 ft | 215 kts | 148° |
| 2026-05-08 18:16 | 39.42531 | 26.71788 | 4595 ft | 214 kts | 148° |
| 2026-05-08 18:16 | 39.41377 | 26.72984 | 4359 ft | 215 kts | 135° |
| 2026-05-08 18:16 | 39.40818 | 26.74774 | 4212 ft | 222 kts | 94° |
| 2026-05-08 18:16 | 39.41265 | 26.76665 | 4120 ft | 224 kts | 61° |
| 2026-05-08 18:17 | 39.42196 | 26.78263 | 4009 ft | 219 kts | 53° |
| 2026-05-08 18:17 | 39.43156 | 26.79764 | 3713 ft | 214 kts | 55° |
| 2026-05-08 18:17 | 39.44049 | 26.81277 | 3432 ft | 209 kts | 57° |
| 2026-05-08 18:17 | 39.44900 | 26.82781 | 3161 ft | 204 kts | 58° |
| 2026-05-08 18:18 | 39.45729 | 26.84248 | 2893 ft | 200 kts | 57° |
| 2026-05-08 18:18 | 39.46544 | 26.85684 | 2636 ft | 196 kts | 58° |
| 2026-05-08 18:18 | 39.47347 | 26.87096 | 2377 ft | 192 kts | 57° |
| 2026-05-08 18:18 | 39.48113 | 26.88444 | 2126 ft | 179 kts | 55° |
| 2026-05-08 18:19 | 39.48815 | 26.89678 | 1883 ft | 162 kts | 55° |
| 2026-05-08 18:19 | 39.49456 | 26.90807 | 1676 ft | 151 kts | 55° |
| 2026-05-08 18:19 | 39.50058 | 26.91870 | 1488 ft | 146 kts | 54° |
| 2026-05-08 18:19 | 39.50650 | 26.92916 | 1302 ft | 143 kts | 53° |
| 2026-05-08 18:20 | 39.51231 | 26.93940 | 1115 ft | 141 kts | 53° |
| 2026-05-08 18:20 | 39.51806 | 26.94954 | 933 ft | 139 kts | 52° |
| 2026-05-08 18:20 | 39.52384 | 26.95975 | 752 ft | 138 kts | 52° |
| 2026-05-08 18:20 | 39.52941 | 26.96956 | 580 ft | 136 kts | 53° |
| 2026-05-08 18:21 | 39.53501 | 26.97962 | 401 ft | 136 kts | 54° |
| 2026-05-08 18:21 | 39.54065 | 26.98945 | 206 ft | 136 kts | 53° |
| 2026-05-08 18:21 | 39.54621 | 26.99927 | 49 ft | 131 kts | 54° |
| 2026-05-08 18:21 | 39.55067 | 27.00720 | 47 ft | 86 kts | 54° |
| 2026-05-08 18:22 | 39.55302 | 27.01135 | 53 ft | 21 kts | 53° |
| 2026-05-08 18:22 | 39.55358 | 27.01200 | 54 ft | 3 kts | 39° |
| 2026-05-08 18:22 | 39.55360 | 27.01214 | 54 ft | 3 kts | 114° |
| 2026-05-08 18:22 | 39.55332 | 27.01183 | 53 ft | 11 kts | 237° |
| 2026-05-08 18:23 | 39.55282 | 27.01096 | 53 ft | 12 kts | 233° |
| 2026-05-08 18:23 | 39.55231 | 27.01007 | 50 ft | 13 kts | 233° |
| 2026-05-08 18:23 | 39.55159 | 27.00946 | 48 ft | 13 kts | 163° |